Time;durP1;ratioP1;P1;durP2;ratioP2;P2;SDS_P1;SDS_P2;PMS_P1;PMS_P2;Temp;Humidity;BMP_temperature;BMP_pressure;BME280_temperature;BME280_humidity;BME280_pressure;Samples;Min_cycle;Max_cycle;Signal;HPM_P1;HPM_P2
2024/01/03 00:01:33;;;;;;;;;;;;;;;7.27;97.76;98390.47;4204554;28;19970;-70
2024/01/03 00:03:35;;;;;;;;;;;;;;;7.28;97.55;98385.94;4212650;28;20036;-69
2024/01/03 00:05:39;;;;;;;;;;;;;;;7.28;97.89;98380.56;4215378;28;20370;-70
2024/01/03 00:07:41;;;;;;;;;;;;;;;7.28;97.39;98376.03;4222564;28;20031;-69
2024/01/03 00:09:43;;;;;;;;;;;;;;;7.27;97.45;98377.03;4204879;28;19974;-69
2024/01/03 00:11:45;;;;;;;;;;;;;;;7.30;97.78;98378.50;4212122;28;20007;-70
2024/01/03 00:14:17;;;;;;;;;;;;;;;7.30;97.33;98373.94;4213649;28;20027;-70
2024/01/03 00:16:19;;;;;;;;;;;;;;;7.33;97.40;98370.81;4210856;28;20521;-69
2024/01/03 00:18:29;;;;;;;;;;;;;;;7.34;97.67;98350.19;4213180;28;20023;-69
2024/01/03 00:20:32;;;;;;;;;;;;;;;7.33;97.49;98351.22;4212531;28;20014;-69
2024/01/03 00:22:35;;;;;;;;;;;;;;;7.37;97.57;98353.25;4211067;28;20022;-70
2024/01/03 00:24:38;;;;;;;;;;;;;;;7.39;97.78;98361.09;4212728;28;20019;-69
2024/01/03 00:26:40;;;;;;;;;;;;;;;7.40;97.75;98347.47;4213223;28;20023;-69
2024/01/03 00:28:42;;;;;;;;;;;;;;;7.39;98.21;98361.91;4204287;28;20011;-70
2024/01/03 00:30:44;;;;;;;;;;;;;;;7.42;98.29;98367.91;4205062;28;20453;-69
2024/01/03 00:32:47;;;;;;;;;;;;;;;7.39;98.09;98353.84;4221073;27;20053;-70
2024/01/03 00:34:48;;;;;;;;;;;;;;;7.43;98.06;98362.31;4204658;28;20102;-69
2024/01/03 00:36:51;;;;;;;;;;;;;;;7.43;98.06;98350.75;4214107;28;19956;-69
2024/01/03 00:38:54;;;;;;;;;;;;;;;7.44;97.89;98360.44;4209067;28;20453;-69
2024/01/03 00:40:57;;;;;;;;;;;;;;;7.46;98.30;98361.06;4211978;28;20378;-69
2024/01/03 00:42:59;;;;;;;;;;;;;;;7.45;98.42;98357.56;4204368;28;20019;-70
2024/01/03 00:45:02;;;;;;;;;;;;;;;7.47;98.48;98360.84;4204568;28;20022;-69
2024/01/03 00:47:03;;;;;;;;;;;;;;;7.44;98.62;98349.72;4211616;28;20019;-69
2024/01/03 00:49:05;;;;;;;;;;;;;;;7.45;98.69;98360.25;4205114;28;20053;-70
2024/01/03 00:51:06;;;;;;;;;;;;;;;7.44;98.66;98352.41;4212230;28;20046;-69
2024/01/03 00:53:08;;;;;;;;;;;;;;;7.46;98.31;98358.38;4190369;28;19924;-69
2024/01/03 00:55:13;;;;;;;;;;;;;;;7.45;98.54;98351.38;4211679;28;20015;-69
2024/01/03 00:57:14;;;;;;;;;;;;;;;7.45;98.43;98354.88;4212857;28;19958;-69
2024/01/03 00:59:16;;;;;;;;;;;;;;;7.47;98.07;98352.78;4213321;28;20016;-69
2024/01/03 01:01:18;;;;;;;;;;;;;;;7.48;98.12;98354.44;4211997;28;19928;-69
2024/01/03 01:03:20;;;;;;;;;;;;;;;7.48;98.14;98359.81;4211481;28;19924;-69
2024/01/03 01:05:23;;;;;;;;;;;;;;;7.50;98.26;98360.41;4212618;28;19963;-69
2024/01/03 01:07:25;;;;;;;;;;;;;;;7.50;98.56;98356.91;4194535;28;19964;-69
2024/01/03 01:09:26;;;;;;;;;;;;;;;7.50;98.58;98351.53;4220697;28;20007;-69
2024/01/03 01:11:29;;;;;;;;;;;;;;;7.48;98.27;98354.44;4220328;28;20022;-69
2024/01/03 01:13:34;;;;;;;;;;;;;;;7.49;98.42;98361.47;4212894;28;20043;-70
2024/01/03 01:15:36;;;;;;;;;;;;;;;7.52;98.34;98354.81;4203628;28;20011;-70
2024/01/03 01:17:44;;;;;;;;;;;;;;;7.49;97.96;98361.47;4212351;28;19924;-69
2024/01/03 01:19:49;;;;;;;;;;;;;;;7.48;98.06;98357.13;4211988;28;19928;-69
2024/01/03 01:21:50;;;;;;;;;;;;;;;7.49;98.12;98368.69;4203549;28;20516;-69
2024/01/03 01:23:53;;;;;;;;;;;;;;;7.50;98.39;98365.78;4210676;28;19983;-69
2024/01/03 01:25:56;;;;;;;;;;;;;;;7.51;97.99;98362.06;4219785;28;20465;-70
2024/01/03 01:28:03;;;;;;;;;;;;;;;7.53;98.10;98367.22;4213248;28;20481;-70
2024/01/03 01:30:08;;;;;;;;;;;;;;;7.51;98.00;98362.06;4212902;28;19928;-70
2024/01/03 01:32:10;;;;;;;;;;;;;;;7.53;98.25;98367.22;4203274;28;20035;-70
2024/01/03 01:34:13;;;;;;;;;;;;;;;7.52;98.38;98373.63;4212662;28;20011;-70
2024/01/03 01:36:14;;;;;;;;;;;;;;;7.54;98.26;98371.56;4203612;28;20424;-70
2024/01/03 01:38:16;;;;;;;;;;;;;;;7.56;97.88;98375.66;4212650;28;19928;-70
2024/01/03 01:40:18;;;;;;;;;;;;;;;7.56;98.10;98382.91;4203217;28;20004;-69
2024/01/03 01:42:20;;;;;;;;;;;;;;;7.56;97.99;98374.84;4212052;28;19964;-69
2024/01/03 01:44:24;;;;;;;;;;;;;;;7.58;97.98;98380.81;4219731;28;20119;-69
2024/01/03 01:46:26;;;;;;;;;;;;;;;7.57;98.02;98380.00;4220663;28;20015;-70
2024/01/03 01:48:27;;;;;;;;;;;;;;;7.59;98.13;98382.47;4212891;28;19959;-70
2024/01/03 01:50:31;;;;;;;;;;;;;;;7.60;98.17;98384.09;4212149;28;20493;-70
2024/01/03 01:52:33;;;;;;;;;;;;;;;7.60;98.38;98380.59;4203268;28;20055;-69
2024/01/03 01:54:38;;;;;;;;;;;;;;;7.57;98.34;98374.63;4212840;28;20364;-70
2024/01/03 01:56:40;;;;;;;;;;;;;;;7.58;98.30;98381.63;4204401;28;20432;-70
2024/01/03 01:58:42;;;;;;;;;;;;;;;7.60;98.39;98385.97;4228632;28;20003;-70
2024/01/03 02:00:46;;;;;;;;;;;;;;;7.60;98.19;98380.59;4211229;28;20019;-69
2024/01/03 02:02:51;;;;;;;;;;;;;;;7.61;98.27;98380.41;4220659;28;20314;-70
2024/01/03 02:04:56;;;;;;;;;;;;;;;7.62;98.11;98373.16;4221217;28;19975;-69
2024/01/03 02:07:01;;;;;;;;;;;;;;;7.61;98.14;98380.41;4212568;28;20003;-69
2024/01/03 02:09:06;;;;;;;;;;;;;;;7.58;98.33;98378.13;4218332;28;20030;-69
2024/01/03 02:11:08;;;;;;;;;;;;;;;7.60;98.27;98372.53;4217180;28;19967;-70
2024/01/03 02:13:13;;;;;;;;;;;;;;;7.62;98.03;98370.47;4217621;28;20006;-70
2024/01/03 02:15:15;;;;;;;;;;;;;;;7.62;98.13;98378.53;4217797;28;20023;-70
2024/01/03 02:17:18;;;;;;;;;;;;;;;7.61;98.06;98375.03;4191912;28;19987;-69
2024/01/03 02:19:20;;;;;;;;;;;;;;;7.62;98.04;98373.16;4226472;27;20432;-69
2024/01/03 02:21:24;;;;;;;;;;;;;;;7.63;98.09;98369.44;4209578;28;20015;-70
2024/01/03 02:23:26;;;;;;;;;;;;;;;7.62;98.28;98384.72;4218197;28;19928;-70
2024/01/03 02:25:30;;;;;;;;;;;;;;;7.64;98.19;98384.53;4218399;28;19928;-70
2024/01/03 02:27:32;;;;;;;;;;;;;;;7.66;98.25;98383.25;4218255;28;19927;-70
2024/01/03 02:29:33;;;;;;;;;;;;;;;7.66;98.61;98383.25;4222848;28;20460;-70
2024/01/03 02:31:39;;;;;;;;;;;;;;;7.65;98.43;98384.31;4216353;28;19928;-70
2024/01/03 02:33:42;;;;;;;;;;;;;;;7.66;98.78;98382.44;4218336;28;20382;-70
2024/01/03 02:35:44;;;;;;;;;;;;;;;7.68;98.56;98374.97;4218755;28;20011;-70
2024/01/03 02:37:47;;;;;;;;;;;;;;;7.70;98.72;98373.72;4209274;28;19963;-70
2024/01/03 02:39:49;;;;;;;;;;;;;;;7.71;98.74;98386.13;4209363;28;20011;-70
2024/01/03 02:41:51;;;;;;;;;;;;;;;7.71;98.84;98375.38;4208966;28;20019;-69
2024/01/03 02:43:52;;;;;;;;;;;;;;;7.72;98.85;98386.94;4217715;28;20519;-70
2024/01/03 02:45:54;;;;;;;;;;;;;;;7.74;99.31;98376.78;4217443;28;19932;-69
2024/01/03 02:47:56;;;;;;;;;;;;;;;7.75;99.26;98379.25;4217689;28;20098;-69
2024/01/03 02:49:58;;;;;;;;;;;;;;;7.75;99.17;98375.75;4219159;28;19987;-69
2024/01/03 02:52:01;;;;;;;;;;;;;;;7.74;99.45;98377.63;4213263;28;19992;-69
2024/01/03 02:54:04;;;;;;;;;;;;;;;7.76;99.19;98378.25;4218367;28;20050;-70
2024/01/03 02:56:06;;;;;;;;;;;;;;;7.78;99.30;98378.03;4215077;28;20031;-69
2024/01/03 02:58:08;;;;;;;;;;;;;;;7.78;99.48;98387.97;4218117;28;20445;-70
2024/01/03 03:00:11;;;;;;;;;;;;;;;7.76;99.56;98394.34;4217266;28;20465;-70
2024/01/03 03:02:12;;;;;;;;;;;;;;;7.80;99.57;98391.25;4216439;28;20371;-70
2024/01/03 03:04:14;;;;;;;;;;;;;;;7.81;99.31;98388.34;4217135;28;19924;-70
2024/01/03 03:06:16;;;;;;;;;;;;;;;7.82;99.28;98394.53;4216769;28;20014;-69
2024/01/03 03:08:18;;;;;;;;;;;;;;;7.81;99.43;98392.91;4217875;28;20514;-70
2024/01/03 03:10:21;;;;;;;;;;;;;;;7.82;99.36;98399.91;4214832;28;20615;-70
2024/01/03 03:12:23;;;;;;;;;;;;;;;7.82;99.38;98392.69;4215203;28;20018;-70
2024/01/03 03:14:25;;;;;;;;;;;;;;;7.82;99.46;98390.00;4213109;28;20086;-70
2024/01/03 03:16:27;;;;;;;;;;;;;;;7.82;99.53;98392.69;4215229;28;20026;-70
2024/01/03 03:18:29;;;;;;;;;;;;;;;7.81;99.50;98390.22;4215512;28;20367;-69
2024/01/03 03:20:32;;;;;;;;;;;;;;;7.82;99.10;98392.69;4213710;28;19962;-70
2024/01/03 03:23:00;;;;;;;;;;;;;;;7.81;99.04;98382.16;4213951;28;19928;-70
2024/01/03 03:25:02;;;;;;;;;;;;;;;7.82;99.36;98386.47;4214368;28;19982;-70
2024/01/03 03:27:05;;;;;;;;;;;;;;;7.81;98.76;98401.78;4214163;28;20063;-70
2024/01/03 03:29:07;;;;;;;;;;;;;;;7.81;98.86;98391.03;4214590;28;20450;-70
2024/01/03 03:31:10;;;;;;;;;;;;;;;7.82;98.93;98381.94;4213952;28;20362;-70
2024/01/03 03:33:12;;;;;;;;;;;;;;;7.82;98.98;98398.06;4215183;28;19968;-69
2024/01/03 03:35:14;;;;;;;;;;;;;;;7.83;98.81;98394.31;4213834;28;20019;-70
2024/01/03 03:37:16;;;;;;;;;;;;;;;7.83;98.81;98404.25;4212727;28;20292;-70
2024/01/03 03:39:18;;;;;;;;;;;;;;;7.83;98.83;98394.31;4213367;28;20027;-69
2024/01/03 03:41:22;;;;;;;;;;;;;;;7.83;98.61;98396.19;4220860;28;20010;-69
2024/01/03 03:43:25;;;;;;;;;;;;;;;7.84;98.83;98403.22;4212497;28;20051;-70
2024/01/03 03:45:26;;;;;;;;;;;;;;;7.81;98.79;98403.66;4214359;28;20390;-70
2024/01/03 03:47:28;;;;;;;;;;;;;;;7.81;98.66;98403.66;4214059;28;19931;-70
2024/01/03 03:49:30;;;;;;;;;;;;;;;7.81;98.47;98401.78;4214904;28;20015;-69
2024/01/03 03:51:31;;;;;;;;;;;;;;;7.82;98.25;98402.59;4213292;28;20028;-70
2024/01/03 03:53:33;;;;;;;;;;;;;;;7.81;98.55;98398.28;4215114;28;19928;-70
2024/01/03 03:55:35;;;;;;;;;;;;;;;7.77;98.15;98395.16;4214308;28;20018;-70
2024/01/03 03:57:37;;;;;;;;;;;;;;;7.76;98.47;98394.34;4213627;28;20015;-69
2024/01/03 03:59:42;;;;;;;;;;;;;;;7.76;98.42;98397.03;4211783;28;20018;-70
2024/01/03 04:01:48;;;;;;;;;;;;;;;7.79;98.31;98397.66;4204445;28;20014;-70
2024/01/03 04:03:51;;;;;;;;;;;;;;;7.79;98.22;98401.19;4214574;28;20011;-70
2024/01/03 04:05:52;;;;;;;;;;;;;;;7.79;97.94;98394.97;4213156;28;20413;-69
2024/01/03 04:07:53;;;;;;;;;;;;;;;7.77;98.24;98405.91;4212273;28;19925;-70
2024/01/03 04:09:54;;;;;;;;;;;;;;;7.78;97.88;98404.06;4204526;28;20042;-69
2024/01/03 04:11:56;;;;;;;;;;;;;;;7.78;98.15;98396.00;4212368;28;20436;-69
2024/01/03 04:13:58;;;;;;;;;;;;;;;7.78;97.83;98398.69;4212843;28;20023;-69
2024/01/03 04:16:03;;;;;;;;;;;;;;;7.78;97.68;98396.84;4213533;28;20067;-69
2024/01/03 04:18:05;;;;;;;;;;;;;;;7.78;97.72;98402.19;4213217;28;20028;-70
2024/01/03 04:20:08;;;;;;;;;;;;;;;7.77;97.64;98395.16;4214272;28;20027;-70
2024/01/03 04:22:10;;;;;;;;;;;;;;;7.78;97.63;98394.13;4214701;28;20019;-70
2024/01/03 04:24:12;;;;;;;;;;;;;;;7.79;97.86;98392.28;4210773;28;20019;-70
2024/01/03 04:26:14;;;;;;;;;;;;;;;7.76;97.68;98394.34;4213018;28;19963;-69
2024/01/03 04:28:15;;;;;;;;;;;;;;;7.78;97.71;98406.75;4212712;28;20022;-69
2024/01/03 04:30:17;;;;;;;;;;;;;;;7.78;97.48;98406.75;4211628;28;19960;-70
2024/01/03 04:32:19;;;;;;;;;;;;;;;7.78;97.66;98398.69;4212806;28;20368;-70
2024/01/03 04:34:21;;;;;;;;;;;;;;;7.75;97.85;98399.94;4212933;28;20054;-69
2024/01/03 04:36:23;;;;;;;;;;;;;;;7.76;97.50;98398.91;4214002;28;20434;-70
2024/01/03 04:38:25;;;;;;;;;;;;;;;7.77;97.49;98405.91;4212877;28;20003;-70
2024/01/03 04:40:27;;;;;;;;;;;;;;;7.77;97.47;98405.91;4213716;28;20004;-70
2024/01/03 04:42:29;;;;;;;;;;;;;;;7.76;97.53;98407.78;4211429;28;20019;-70
2024/01/03 04:44:31;;;;;;;;;;;;;;;7.74;97.40;98400.97;4213286;28;20019;-70
2024/01/03 04:46:33;;;;;;;;;;;;;;;7.74;97.61;98404.50;4211502;28;20023;-70
2024/01/03 04:48:36;;;;;;;;;;;;;;;7.73;97.46;98410.91;4212843;28;20023;-69
2024/01/03 04:50:38;;;;;;;;;;;;;;;7.72;97.30;98413.81;4212938;28;20015;-70
2024/01/03 04:52:39;;;;;;;;;;;;;;;7.69;97.59;98423.13;4213352;28;20012;-70
2024/01/03 04:54:41;;;;;;;;;;;;;;;7.70;97.14;98411.34;4212316;28;20015;-69
2024/01/03 04:56:43;;;;;;;;;;;;;;;7.72;97.02;98419.19;4211175;28;20338;-69
2024/01/03 04:58:44;;;;;;;;;;;;;;;7.70;97.04;98411.34;4212622;28;20014;-70
2024/01/03 05:00:46;;;;;;;;;;;;;;;7.68;97.15;98423.34;4210854;28;19928;-70
2024/01/03 05:02:49;;;;;;;;;;;;;;;7.69;96.90;98425.00;4212799;28;19975;-70
2024/01/03 05:04:52;;;;;;;;;;;;;;;7.69;96.83;98415.06;4209265;28;20358;-70
2024/01/03 05:06:53;;;;;;;;;;;;;;;7.69;97.04;98425.00;4212680;28;20355;-70
2024/01/03 05:08:55;;;;;;;;;;;;;;;7.68;96.74;98417.97;4212454;28;20369;-70
2024/01/03 05:10:57;;;;;;;;;;;;;;;7.66;96.94;98422.72;4211945;28;19924;-70
2024/01/03 05:12:59;;;;;;;;;;;;;;;7.68;96.93;98423.34;4212096;28;20050;-69
2024/01/03 05:15:01;;;;;;;;;;;;;;;7.67;96.48;98430.56;4212513;28;20023;-70
2024/01/03 05:17:03;;;;;;;;;;;;;;;7.68;96.73;98434.06;4213103;28;19999;-70
2024/01/03 05:19:05;;;;;;;;;;;;;;;7.68;96.68;98426.88;4215380;28;21345;-70
2024/01/03 05:21:09;;;;;;;;;;;;;;;7.70;96.54;98440.09;4215825;28;19931;-70
2024/01/03 05:23:11;;;;;;;;;;;;;;;7.71;96.54;98422.91;4213108;28;19924;-69
2024/01/03 05:25:13;;;;;;;;;;;;;;;7.70;96.73;98435.53;4205127;28;19970;-70
2024/01/03 05:27:15;;;;;;;;;;;;;;;7.70;96.50;98435.53;4211639;28;19946;-70
2024/01/03 05:29:17;;;;;;;;;;;;;;;7.72;96.78;98440.69;4212848;28;19924;-69
2024/01/03 05:31:19;;;;;;;;;;;;;;;7.71;96.42;98437.19;4211522;28;19983;-69
2024/01/03 05:33:21;;;;;;;;;;;;;;;7.73;96.46;98442.34;4210863;28;20019;-70
2024/01/03 05:35:23;;;;;;;;;;;;;;;7.70;96.68;98434.72;4212334;28;20023;-70
2024/01/03 05:37:26;;;;;;;;;;;;;;;7.73;96.59;98442.34;4212830;28;20051;-70
2024/01/03 05:39:28;;;;;;;;;;;;;;;7.75;96.37;98437.56;4213382;28;20094;-70
2024/01/03 05:41:30;;;;;;;;;;;;;;;7.76;96.44;98447.28;4212134;28;19951;-70
2024/01/03 05:43:33;;;;;;;;;;;;;;;7.74;96.27;98434.06;4210546;28;20024;-70
2024/01/03 05:45:35;;;;;;;;;;;;;;;7.76;96.16;98447.28;4212014;28;20031;-70
2024/01/03 05:47:37;;;;;;;;;;;;;;;7.76;96.17;98441.91;4209968;28;20621;-71
2024/01/03 05:49:39;;;;;;;;;;;;;;;7.77;96.17;98443.53;4209913;28;20403;-70
2024/01/03 05:51:40;;;;;;;;;;;;;;;7.79;96.22;98454.06;4209760;28;20095;-71
2024/01/03 05:53:47;;;;;;;;;;;;;;;7.80;96.35;98451.16;4210945;28;20028;-70
2024/01/03 05:55:49;;;;;;;;;;;;;;;7.81;96.13;98454.69;4210908;28;20011;-70
2024/01/03 05:57:50;;;;;;;;;;;;;;;7.82;96.27;98451.81;4211234;28;20015;-69
2024/01/03 05:59:52;;;;;;;;;;;;;;;7.84;96.33;98454.28;4212575;28;19996;-69
2024/01/03 06:01:53;;;;;;;;;;;;;;;7.83;96.27;98458.81;4211580;28;20031;-69
2024/01/03 06:03:55;;;;;;;;;;;;;;;7.85;96.19;98456.75;4212648;28;19924;-70
2024/01/03 06:05:57;;;;;;;;;;;;;;;7.85;96.31;98459.44;4211198;28;20006;-70
2024/01/03 06:07:59;;;;;;;;;;;;;;;7.85;96.15;98463.97;4211325;28;19981;-70
2024/01/03 06:10:02;;;;;;;;;;;;;;;7.85;95.77;98456.75;4200928;28;20461;-70
2024/01/03 06:12:04;;;;;;;;;;;;;;;7.85;96.01;98451.38;4209881;28;20018;-72
2024/01/03 06:14:06;;;;;;;;;;;;;;;7.87;96.00;98453.84;4197136;28;20494;-72
2024/01/03 06:16:09;;;;;;;;;;;;;;;7.85;95.82;98450.53;4209457;28;20015;-72
2024/01/03 06:18:14;;;;;;;;;;;;;;;7.86;95.91;98458.38;4206742;28;20003;-72
2024/01/03 06:20:16;;;;;;;;;;;;;;;7.87;95.49;98462.72;4210623;28;20098;-70
2024/01/03 06:22:18;;;;;;;;;;;;;;;7.88;95.79;98482.34;4208494;28;20019;-71
2024/01/03 06:24:19;;;;;;;;;;;;;;;7.89;95.35;98478.63;4207756;28;20303;-71
2024/01/03 06:26:24;;;;;;;;;;;;;;;7.94;95.35;98481.50;4209262;28;19935;-72
2024/01/03 06:28:27;;;;;;;;;;;;;;;7.92;95.25;98489.78;4198446;28;19937;-71
2024/01/03 06:30:29;;;;;;;;;;;;;;;7.92;95.38;98491.63;4215915;28;20002;-72
2024/01/03 06:32:31;;;;;;;;;;;;;;;7.93;95.05;98501.34;4186273;28;19932;-71
2024/01/03 06:34:33;;;;;;;;;;;;;;;7.95;95.34;98493.91;4210307;28;20031;-71
2024/01/03 06:36:35;;;;;;;;;;;;;;;7.96;95.10;98510.84;4206382;28;20022;-71
2024/01/03 06:38:38;;;;;;;;;;;;;;;7.97;95.13;98491.00;4209415;28;20047;-70
2024/01/03 06:40:40;;;;;;;;;;;;;;;7.97;94.84;98493.69;4210464;28;20048;-71
2024/01/03 06:42:43;;;;;;;;;;;;;;;7.97;95.09;98496.38;4202457;28;19932;-70
2024/01/03 06:44:45;;;;;;;;;;;;;;;7.98;94.85;98506.91;4210551;28;20012;-71
2024/01/03 06:46:47;;;;;;;;;;;;;;;7.98;94.96;98514.97;4213093;28;19967;-71
2024/01/03 06:48:49;;;;;;;;;;;;;;;7.97;94.68;98513.31;4210910;28;20444;-70
2024/01/03 06:50:52;;;;;;;;;;;;;;;7.99;94.61;98518.47;4210715;28;20346;-70
2024/01/03 06:52:54;;;;;;;;;;;;;;;8.00;94.54;98522.81;4210985;28;20134;-70
2024/01/03 06:54:57;;;;;;;;;;;;;;;7.98;94.57;98527.56;4211834;28;20018;-70
2024/01/03 06:56:59;;;;;;;;;;;;;;;8.01;94.72;98524.44;4212603;28;20023;-71
2024/01/03 06:59:02;;;;;;;;;;;;;;;7.96;94.49;98533.16;4212400;28;20055;-70
2024/01/03 07:01:04;;;;;;;;;;;;;;;7.99;94.67;98543.50;4214743;28;20449;-71
2024/01/03 07:03:06;;;;;;;;;;;;;;;8.01;94.61;98535.22;4209650;28;19995;-70
2024/01/03 07:05:08;;;;;;;;;;;;;;;8.03;94.46;98538.53;4213418;28;20027;-71
2024/01/03 07:07:12;;;;;;;;;;;;;;;8.04;94.37;98542.84;4213634;28;19956;-71
2024/01/03 07:09:14;;;;;;;;;;;;;;;8.02;94.29;98540.38;4215513;28;19964;-71
2024/01/03 07:11:17;;;;;;;;;;;;;;;8.03;94.31;98543.91;4212953;28;20011;-71
2024/01/03 07:13:19;;;;;;;;;;;;;;;8.05;94.40;98541.81;4213731;28;20031;-71
2024/01/03 07:15:24;;;;;;;;;;;;;;;8.04;94.00;98532.09;4214874;28;20453;-71
2024/01/03 07:17:26;;;;;;;;;;;;;;;8.05;94.31;98552.56;4212473;28;20022;-71
2024/01/03 07:19:27;;;;;;;;;;;;;;;8.05;94.17;98548.00;4214713;28;20018;-71
2024/01/03 07:21:30;;;;;;;;;;;;;;;8.06;93.77;98546.97;4212157;28;19955;-71
2024/01/03 07:23:32;;;;;;;;;;;;;;;8.05;94.28;98545.31;4213869;28;19972;-71
2024/01/03 07:25:39;;;;;;;;;;;;;;;8.06;94.02;98546.97;4213455;28;20313;-71
2024/01/03 07:27:40;;;;;;;;;;;;;;;8.05;94.16;98558.75;4213765;28;19930;-70
2024/01/03 07:29:51;;;;;;;;;;;;;;;8.08;94.09;98552.16;4215005;28;19928;-71
2024/01/03 07:31:57;;;;;;;;;;;;;;;8.09;93.72;98560.00;4212426;28;19928;-70
2024/01/03 07:33:59;;;;;;;;;;;;;;;8.10;93.87;98560.81;4213495;28;19991;-71
2024/01/03 07:36:01;;;;;;;;;;;;;;;8.09;93.81;98554.63;4212815;28;19968;-71
2024/01/03 07:38:07;;;;;;;;;;;;;;;8.10;93.53;98553.59;4213747;28;20118;-71
2024/01/03 07:40:10;;;;;;;;;;;;;;;8.09;93.36;98548.44;4213399;28;20023;-71
2024/01/03 07:42:12;;;;;;;;;;;;;;;8.09;93.38;98569.94;4205257;28;20043;-71
2024/01/03 07:44:14;;;;;;;;;;;;;;;8.11;93.44;98562.47;4213645;28;20015;-71
2024/01/03 07:46:16;;;;;;;;;;;;;;;8.10;93.41;98553.59;4214835;28;20015;-71
2024/01/03 07:48:19;;;;;;;;;;;;;;;8.09;93.13;98548.44;4215020;28;20024;-71
2024/01/03 07:50:21;;;;;;;;;;;;;;;8.12;93.12;98558.75;4214075;28;20363;-71
2024/01/03 07:52:23;;;;;;;;;;;;;;;8.09;93.11;98549.25;4214138;28;20019;-71
2024/01/03 07:54:25;;;;;;;;;;;;;;;8.10;93.12;98558.97;4214445;28;19959;-71
2024/01/03 07:56:27;;;;;;;;;;;;;;;8.12;92.86;98558.75;4214722;28;20437;-70
2024/01/03 07:58:29;;;;;;;;;;;;;;;8.13;92.53;98565.75;4214048;28;20023;-71
2024/01/03 08:00:31;;;;;;;;;;;;;;;8.14;92.61;98567.41;4213063;28;19970;-71
2024/01/03 08:02:33;;;;;;;;;;;;;;;8.14;92.58;98558.53;4213674;28;20027;-71
2024/01/03 08:04:36;;;;;;;;;;;;;;;8.15;92.19;98554.78;4213867;28;20446;-71
2024/01/03 08:06:38;;;;;;;;;;;;;;;8.16;92.13;98557.25;4214130;28;20023;-71
2024/01/03 08:08:40;;;;;;;;;;;;;;;8.16;92.24;98559.94;4211872;28;20035;-71
2024/01/03 08:10:42;;;;;;;;;;;;;;;8.15;92.37;98565.53;4211782;28;20004;-71
2024/01/03 08:12:44;;;;;;;;;;;;;;;8.15;92.11;98569.09;4213793;28;20014;-71
2024/01/03 08:14:46;;;;;;;;;;;;;;;8.18;92.18;98565.97;4214589;28;20014;-71
2024/01/03 08:16:50;;;;;;;;;;;;;;;8.19;91.71;98553.34;4214304;28;20015;-71
2024/01/03 08:18:52;;;;;;;;;;;;;;;8.19;92.03;98566.78;4213870;28;20023;-70
2024/01/03 08:20:56;;;;;;;;;;;;;;;8.18;91.62;98560.59;4211913;28;20015;-70
2024/01/03 08:22:58;;;;;;;;;;;;;;;8.18;91.71;98570.50;4213583;28;20026;-71
2024/01/03 08:25:00;;;;;;;;;;;;;;;8.18;91.82;98565.97;4213804;28;20362;-70
2024/01/03 08:27:02;;;;;;;;;;;;;;;8.22;91.75;98579.78;4213336;28;20506;-71
2024/01/03 08:29:04;;;;;;;;;;;;;;;8.23;91.29;98566.13;4214402;28;20770;-71
2024/01/03 08:31:06;;;;;;;;;;;;;;;8.23;91.41;98560.75;4203742;28;20440;-71
2024/01/03 08:33:08;;;;;;;;;;;;;;;8.23;91.14;98576.88;4213428;28;20541;-71
2024/01/03 08:35:10;;;;;;;;;;;;;;;8.24;91.43;98569.63;4214653;28;20466;-71
2024/01/03 08:37:16;;;;;;;;;;;;;;;8.24;91.22;98580.41;4221722;28;20030;-71
2024/01/03 08:39:20;;;;;;;;;;;;;;;8.24;91.21;98577.69;4206561;28;20019;-71
2024/01/03 08:41:22;;;;;;;;;;;;;;;8.25;91.07;98564.03;4215887;28;19955;-71
2024/01/03 08:43:26;;;;;;;;;;;;;;;8.26;91.03;98578.31;4215630;28;19924;-72
2024/01/03 08:45:28;;;;;;;;;;;;;;;8.28;91.19;98589.69;4216116;28;19978;-72
2024/01/03 08:47:30;;;;;;;;;;;;;;;8.28;91.04;98571.69;4213603;28;20019;-70
2024/01/03 08:49:32;;;;;;;;;;;;;;;8.30;90.99;98566.09;4212694;28;20018;-71
2024/01/03 08:51:34;;;;;;;;;;;;;;;8.30;91.17;98564.22;4212971;28;19927;-71
2024/01/03 08:53:37;;;;;;;;;;;;;;;8.33;90.67;98568.34;4213119;28;20014;-71
2024/01/03 08:55:39;;;;;;;;;;;;;;;8.33;90.77;98580.97;4220214;28;19970;-72
2024/01/03 08:57:41;;;;;;;;;;;;;;;8.32;90.89;98571.25;4213079;28;20027;-72
2024/01/03 08:59:43;;;;;;;;;;;;;;;8.31;90.89;98575.81;4212097;28;19940;-72
2024/01/03 09:01:45;;;;;;;;;;;;;;;8.35;90.65;98584.28;4211883;28;20018;-72
2024/01/03 09:03:47;;;;;;;;;;;;;;;8.36;90.51;98596.69;4211396;28;20023;-72
2024/01/03 09:05:49;;;;;;;;;;;;;;;8.36;90.43;98589.44;4213159;28;20031;-72
2024/01/03 09:07:52;;;;;;;;;;;;;;;8.36;90.59;98573.28;4203816;28;20019;-72
2024/01/03 09:09:55;;;;;;;;;;;;;;;8.38;90.69;98571.19;4213170;28;20011;-72
2024/01/03 09:11:57;;;;;;;;;;;;;;;8.37;90.63;98574.97;4210745;28;20015;-72
2024/01/03 09:13:59;;;;;;;;;;;;;;;8.42;90.44;98579.69;4212435;28;20018;-72
2024/01/03 09:16:03;;;;;;;;;;;;;;;8.40;90.63;98581.75;4213257;28;19963;-71
2024/01/03 09:18:05;;;;;;;;;;;;;;;8.41;90.51;98578.03;4212430;28;19983;-72
2024/01/03 09:20:08;;;;;;;;;;;;;;;8.42;90.38;98599.34;4212556;28;20444;-71
2024/01/03 09:22:10;;;;;;;;;;;;;;;8.43;90.48;98586.69;4213573;28;19970;-72
2024/01/03 09:24:12;;;;;;;;;;;;;;;8.46;90.45;98595.22;4213740;28;20411;-72
2024/01/03 09:26:17;;;;;;;;;;;;;;;8.46;90.21;98580.91;4213273;28;20015;-72
2024/01/03 09:28:19;;;;;;;;;;;;;;;8.47;90.29;98580.69;4204109;28;19960;-72
2024/01/03 09:30:21;;;;;;;;;;;;;;;8.47;90.56;98580.69;4213468;28;20019;-72
2024/01/03 09:32:22;;;;;;;;;;;;;;;8.48;90.47;98584.25;4213157;28;20026;-72
2024/01/03 09:34:24;;;;;;;;;;;;;;;8.49;90.54;98610.09;4213560;28;20461;-72
2024/01/03 09:36:26;;;;;;;;;;;;;;;8.51;90.27;98585.66;4213620;28;20430;-72
2024/01/03 09:38:29;;;;;;;;;;;;;;;8.52;90.35;98593.50;4212740;28;20030;-72
2024/01/03 09:40:33;;;;;;;;;;;;;;;8.52;90.49;98606.16;4203252;28;19964;-71
2024/01/03 09:42:36;;;;;;;;;;;;;;;8.55;90.26;98585.00;4219716;28;20010;-72
2024/01/03 09:44:38;;;;;;;;;;;;;;;8.56;90.07;98580.47;4212916;28;20030;-72
2024/01/03 09:46:40;;;;;;;;;;;;;;;8.59;90.23;98585.38;4213007;28;19963;-72
2024/01/03 09:48:42;;;;;;;;;;;;;;;8.60;89.97;98608.56;4220291;28;20010;-72
2024/01/03 09:50:43;;;;;;;;;;;;;;;8.61;90.13;98589.53;4210536;28;20388;-72
2024/01/03 09:52:45;;;;;;;;;;;;;;;8.62;90.15;98599.25;4212776;28;19924;-72
2024/01/03 09:54:46;;;;;;;;;;;;;;;8.62;90.06;98588.50;4212129;28;20015;-72
2024/01/03 09:56:48;;;;;;;;;;;;;;;8.63;90.11;98592.00;4213176;28;20000;-72
2024/01/03 09:58:52;;;;;;;;;;;;;;;8.64;89.96;98597.16;4211907;28;20042;-72
2024/01/03 10:00:54;;;;;;;;;;;;;;;8.66;89.86;98599.63;4212613;28;20019;-72
2024/01/03 10:02:57;;;;;;;;;;;;;;;8.68;90.01;98602.09;4213257;28;20023;-72
2024/01/03 10:04:59;;;;;;;;;;;;;;;8.68;89.83;98602.09;4213739;28;20022;-72
2024/01/03 10:07:04;;;;;;;;;;;;;;;8.70;89.87;98594.63;4212733;28;19959;-72
2024/01/03 10:09:11;;;;;;;;;;;;;;;8.69;89.92;98599.19;4213055;28;19951;-72
2024/01/03 10:11:20;;;;;;;;;;;;;;;8.72;89.68;98597.94;4210810;28;20110;-72
2024/01/03 10:13:24;;;;;;;;;;;;;;;8.73;89.93;98603.13;4212481;28;19928;-72
2024/01/03 10:15:27;;;;;;;;;;;;;;;8.75;89.69;98590.25;4212826;28;20015;-72
2024/01/03 10:17:31;;;;;;;;;;;;;;;8.76;89.40;98597.31;4213643;28;20412;-72
2024/01/03 10:19:34;;;;;;;;;;;;;;;8.77;89.76;98588.16;4203240;28;20451;-72
2024/01/03 10:21:35;;;;;;;;;;;;;;;8.79;89.52;98604.09;4211859;28;19951;-71
2024/01/03 10:23:40;;;;;;;;;;;;;;;8.80;89.66;98597.69;4220443;28;19974;-71
2024/01/03 10:25:47;;;;;;;;;;;;;;;8.81;89.59;98588.56;4213770;28;20428;-71
2024/01/03 10:27:53;;;;;;;;;;;;;;;8.83;89.68;98587.28;4214018;28;19955;-72
2024/01/03 10:29:55;;;;;;;;;;;;;;;8.81;89.62;98591.25;4216160;28;19959;-72
2024/01/03 10:31:58;;;;;;;;;;;;;;;8.84;89.34;98591.66;4216650;28;19968;-72
2024/01/03 10:34:00;;;;;;;;;;;;;;;8.84;89.31;98623.94;4215217;28;19924;-72
2024/01/03 10:36:08;;;;;;;;;;;;;;;8.88;89.13;98589.34;4217148;28;19964;-71
2024/01/03 10:38:13;;;;;;;;;;;;;;;8.89;88.96;98591.00;4215373;28;20019;-72
2024/01/03 10:40:15;;;;;;;;;;;;;;;8.87;88.83;98609.25;4223932;28;20015;-72
2024/01/03 10:42:17;;;;;;;;;;;;;;;8.90;88.80;98587.22;4215651;28;19956;-72
2024/01/03 10:44:19;;;;;;;;;;;;;;;8.92;88.70;98595.94;4215246;28;20413;-72
2024/01/03 10:46:20;;;;;;;;;;;;;;;8.93;88.92;98594.06;4215353;28;19966;-71
2024/01/03 10:48:23;;;;;;;;;;;;;;;8.93;88.84;98592.19;4215889;28;19967;-72